sensor_id;sensor_type;location;lat;lon;timestamp;temperature;humidity
15749;DHT22;7976;52.526;13.326;2023-03-14T00:01:38;12.30;99.90
15749;DHT22;7976;52.526;13.326;2023-03-14T00:04:05;12.30;99.90
15749;DHT22;7976;52.526;13.326;2023-03-14T00:06:32;12.30;99.90
15749;DHT22;7976;52.526;13.326;2023-03-14T00:08:59;12.30;99.90
15749;DHT22;7976;52.526;13.326;2023-03-14T00:11:25;12.30;99.90
15749;DHT22;7976;52.526;13.326;2023-03-14T00:13:53;12.30;99.90
15749;DHT22;7976;52.526;13.326;2023-03-14T00:16:20;12.20;99.90
15749;DHT22;7976;52.526;13.326;2023-03-14T00:18:49;12.20;99.90
15749;DHT22;7976;52.526;13.326;2023-03-14T00:21:16;12.20;99.90
15749;DHT22;7976;52.526;13.326;2023-03-14T00:23:43;12.20;99.90
15749;DHT22;7976;52.526;13.326;2023-03-14T00:26:12;12.20;99.90
15749;DHT22;7976;52.526;13.326;2023-03-14T00:28:40;12.20;99.90
15749;DHT22;7976;52.526;13.326;2023-03-14T00:31:10;12.20;99.90
15749;DHT22;7976;52.526;13.326;2023-03-14T00:33:40;12.10;99.90
15749;DHT22;7976;52.526;13.326;2023-03-14T00:36:12;12.10;99.90
15749;DHT22;7976;52.526;13.326;2023-03-14T00:38:42;12.00;99.90
15749;DHT22;7976;52.526;13.326;2023-03-14T00:41:13;12.10;99.90
15749;DHT22;7976;52.526;13.326;2023-03-14T00:43:42;12.10;99.90
15749;DHT22;7976;52.526;13.326;2023-03-14T00:46:09;12.00;99.90
15749;DHT22;7976;52.526;13.326;2023-03-14T00:48:36;12.10;99.90
15749;DHT22;7976;52.526;13.326;2023-03-14T00:51:05;12.00;99.90
15749;DHT22;7976;52.526;13.326;2023-03-14T00:53:36;12.00;99.90
15749;DHT22;7976;52.526;13.326;2023-03-14T00:56:05;12.00;99.90
15749;DHT22;7976;52.526;13.326;2023-03-14T00:58:34;12.00;99.90
15749;DHT22;7976;52.526;13.326;2023-03-14T01:01:05;12.00;99.90
15749;DHT22;7976;52.526;13.326;2023-03-14T01:03:33;12.00;99.90
15749;DHT22;7976;52.526;13.326;2023-03-14T01:06:07;11.90;99.90
15749;DHT22;7976;52.526;13.326;2023-03-14T01:08:37;11.90;99.90
15749;DHT22;7976;52.526;13.326;2023-03-14T01:11:09;11.90;99.90
15749;DHT22;7976;52.526;13.326;2023-03-14T01:13:38;11.90;99.90
15749;DHT22;7976;52.526;13.326;2023-03-14T01:16:08;11.90;99.90
15749;DHT22;7976;52.526;13.326;2023-03-14T01:18:37;11.90;99.90
15749;DHT22;7976;52.526;13.326;2023-03-14T01:21:10;11.90;99.90
15749;DHT22;7976;52.526;13.326;2023-03-14T01:23:41;11.80;99.90
15749;DHT22;7976;52.526;13.326;2023-03-14T01:26:10;11.80;99.90
15749;DHT22;7976;52.526;13.326;2023-03-14T01:28:39;11.80;99.90
15749;DHT22;7976;52.526;13.326;2023-03-14T01:31:07;11.80;99.90
15749;DHT22;7976;52.526;13.326;2023-03-14T01:33:35;11.80;99.90
15749;DHT22;7976;52.526;13.326;2023-03-14T01:36:03;11.80;99.90
15749;DHT22;7976;52.526;13.326;2023-03-14T01:38:32;11.80;99.90
15749;DHT22;7976;52.526;13.326;2023-03-14T01:41:02;11.80;99.90
15749;DHT22;7976;52.526;13.326;2023-03-14T01:43:30;11.70;99.90
15749;DHT22;7976;52.526;13.326;2023-03-14T01:46:19;11.70;99.90
15749;DHT22;7976;52.526;13.326;2023-03-14T01:48:58;11.70;99.90
15749;DHT22;7976;52.526;13.326;2023-03-14T01:51:36;11.70;99.90
15749;DHT22;7976;52.526;13.326;2023-03-14T01:54:14;11.70;99.90
15749;DHT22;7976;52.526;13.326;2023-03-14T01:56:51;11.70;99.90
15749;DHT22;7976;52.526;13.326;2023-03-14T01:59:22;11.70;99.90
15749;DHT22;7976;52.526;13.326;2023-03-14T02:01:51;11.70;99.90
15749;DHT22;7976;52.526;13.326;2023-03-14T02:04:20;11.70;99.90
15749;DHT22;7976;52.526;13.326;2023-03-14T02:06:51;11.70;99.90
15749;DHT22;7976;52.526;13.326;2023-03-14T02:09:26;11.70;99.90
15749;DHT22;7976;52.526;13.326;2023-03-14T02:11:54;11.70;99.90
15749;DHT22;7976;52.526;13.326;2023-03-14T02:14:35;11.70;99.90
15749;DHT22;7976;52.526;13.326;2023-03-14T02:17:25;11.70;99.90
15749;DHT22;7976;52.526;13.326;2023-03-14T02:20:05;11.60;99.90
15749;DHT22;7976;52.526;13.326;2023-03-14T02:22:51;11.60;99.90
15749;DHT22;7976;52.526;13.326;2023-03-14T02:25:23;11.60;99.90
15749;DHT22;7976;52.526;13.326;2023-03-14T02:28:00;11.70;99.90
15749;DHT22;7976;52.526;13.326;2023-03-14T02:30:29;11.60;99.90
15749;DHT22;7976;52.526;13.326;2023-03-14T02:33:00;11.70;99.90
15749;DHT22;7976;52.526;13.326;2023-03-14T02:35:40;11.70;99.90
15749;DHT22;7976;52.526;13.326;2023-03-14T02:38:15;11.70;99.90
15749;DHT22;7976;52.526;13.326;2023-03-14T02:40:48;11.70;99.90
15749;DHT22;7976;52.526;13.326;2023-03-14T02:43:16;11.70;99.90
15749;DHT22;7976;52.526;13.326;2023-03-14T02:45:49;11.70;99.90
15749;DHT22;7976;52.526;13.326;2023-03-14T02:48:22;11.70;99.90
15749;DHT22;7976;52.526;13.326;2023-03-14T02:50:54;11.70;99.90
15749;DHT22;7976;52.526;13.326;2023-03-14T02:53:25;11.70;99.90
15749;DHT22;7976;52.526;13.326;2023-03-14T02:55:57;11.70;99.90
15749;DHT22;7976;52.526;13.326;2023-03-14T02:58:26;11.60;99.90
15749;DHT22;7976;52.526;13.326;2023-03-14T03:01:00;11.60;99.90
15749;DHT22;7976;52.526;13.326;2023-03-14T03:03:27;11.60;99.90
15749;DHT22;7976;52.526;13.326;2023-03-14T03:05:55;11.60;99.90
15749;DHT22;7976;52.526;13.326;2023-03-14T03:08:24;11.50;99.90
15749;DHT22;7976;52.526;13.326;2023-03-14T03:10:53;11.50;99.90
15749;DHT22;7976;52.526;13.326;2023-03-14T03:13:23;11.50;99.90
15749;DHT22;7976;52.526;13.326;2023-03-14T03:15:54;11.50;99.90
15749;DHT22;7976;52.526;13.326;2023-03-14T03:18:21;11.50;99.90
15749;DHT22;7976;52.526;13.326;2023-03-14T03:20:48;11.40;99.90
15749;DHT22;7976;52.526;13.326;2023-03-14T03:23:15;11.40;99.90
15749;DHT22;7976;52.526;13.326;2023-03-14T03:25:41;11.40;99.90
15749;DHT22;7976;52.526;13.326;2023-03-14T03:28:08;11.40;99.90
15749;DHT22;7976;52.526;13.326;2023-03-14T03:30:39;11.40;99.90
15749;DHT22;7976;52.526;13.326;2023-03-14T03:33:08;11.40;99.90
15749;DHT22;7976;52.526;13.326;2023-03-14T03:35:42;11.40;99.90
15749;DHT22;7976;52.526;13.326;2023-03-14T03:38:10;11.40;99.90
15749;DHT22;7976;52.526;13.326;2023-03-14T03:40:38;11.40;99.90
15749;DHT22;7976;52.526;13.326;2023-03-14T03:43:07;11.30;99.90
15749;DHT22;7976;52.526;13.326;2023-03-14T03:45:36;11.30;99.90
15749;DHT22;7976;52.526;13.326;2023-03-14T03:48:05;11.30;99.90
15749;DHT22;7976;52.526;13.326;2023-03-14T03:50:33;11.30;99.90
15749;DHT22;7976;52.526;13.326;2023-03-14T03:53:00;11.30;99.90
15749;DHT22;7976;52.526;13.326;2023-03-14T03:55:27;11.30;99.90
15749;DHT22;7976;52.526;13.326;2023-03-14T03:57:54;11.30;99.90
15749;DHT22;7976;52.526;13.326;2023-03-14T04:00:21;11.30;99.90
15749;DHT22;7976;52.526;13.326;2023-03-14T04:02:48;11.30;99.90
15749;DHT22;7976;52.526;13.326;2023-03-14T04:05:16;11.30;99.90
15749;DHT22;7976;52.526;13.326;2023-03-14T04:07:55;11.30;99.90
15749;DHT22;7976;52.526;13.326;2023-03-14T04:10:25;11.20;99.90
15749;DHT22;7976;52.526;13.326;2023-03-14T04:13:07;11.30;99.90
15749;DHT22;7976;52.526;13.326;2023-03-14T04:15:36;11.30;99.90
15749;DHT22;7976;52.526;13.326;2023-03-14T04:18:09;11.30;99.90
15749;DHT22;7976;52.526;13.326;2023-03-14T04:20:36;11.30;99.90
15749;DHT22;7976;52.526;13.326;2023-03-14T04:23:05;11.20;99.90
15749;DHT22;7976;52.526;13.326;2023-03-14T04:25:32;11.20;99.90
15749;DHT22;7976;52.526;13.326;2023-03-14T04:28:03;11.20;99.90
15749;DHT22;7976;52.526;13.326;2023-03-14T04:30:31;11.20;99.90
15749;DHT22;7976;52.526;13.326;2023-03-14T04:33:04;11.20;99.90
15749;DHT22;7976;52.526;13.326;2023-03-14T04:35:34;11.20;99.90
15749;DHT22;7976;52.526;13.326;2023-03-14T04:38:08;11.30;99.90
15749;DHT22;7976;52.526;13.326;2023-03-14T04:40:36;11.30;99.90
15749;DHT22;7976;52.526;13.326;2023-03-14T04:43:05;11.30;99.90
15749;DHT22;7976;52.526;13.326;2023-03-14T04:45:33;11.20;99.90
15749;DHT22;7976;52.526;13.326;2023-03-14T04:48:02;11.20;99.90
15749;DHT22;7976;52.526;13.326;2023-03-14T04:50:29;11.20;99.90
15749;DHT22;7976;52.526;13.326;2023-03-14T04:52:56;11.20;99.90
15749;DHT22;7976;52.526;13.326;2023-03-14T04:55:25;11.20;99.90
15749;DHT22;7976;52.526;13.326;2023-03-14T04:57:54;11.20;99.90
15749;DHT22;7976;52.526;13.326;2023-03-14T05:00:21;11.20;99.90
15749;DHT22;7976;52.526;13.326;2023-03-14T05:03:02;11.20;99.90
15749;DHT22;7976;52.526;13.326;2023-03-14T05:05:45;11.20;99.90
15749;DHT22;7976;52.526;13.326;2023-03-14T05:08:23;11.20;99.90
15749;DHT22;7976;52.526;13.326;2023-03-14T05:11:06;11.30;99.90
15749;DHT22;7976;52.526;13.326;2023-03-14T05:13:59;11.20;99.90
15749;DHT22;7976;52.526;13.326;2023-03-14T05:16:45;11.30;99.90
15749;DHT22;7976;52.526;13.326;2023-03-14T05:19:23;11.20;99.90
15749;DHT22;7976;52.526;13.326;2023-03-14T05:22:10;11.20;99.90
15749;DHT22;7976;52.526;13.326;2023-03-14T05:24:56;11.20;99.90
15749;DHT22;7976;52.526;13.326;2023-03-14T05:27:44;11.30;99.90
15749;DHT22;7976;52.526;13.326;2023-03-14T05:30:31;11.30;99.90
15749;DHT22;7976;52.526;13.326;2023-03-14T05:33:12;11.20;99.90
15749;DHT22;7976;52.526;13.326;2023-03-14T05:35:55;11.30;99.90
15749;DHT22;7976;52.526;13.326;2023-03-14T05:38:55;11.20;99.90
15749;DHT22;7976;52.526;13.326;2023-03-14T05:41:49;11.30;99.90
15749;DHT22;7976;52.526;13.326;2023-03-14T05:44:36;11.20;99.90
15749;DHT22;7976;52.526;13.326;2023-03-14T05:47:22;11.30;99.90
15749;DHT22;7976;52.526;13.326;2023-03-14T05:50:09;11.30;99.90
15749;DHT22;7976;52.526;13.326;2023-03-14T05:52:55;11.30;99.90
15749;DHT22;7976;52.526;13.326;2023-03-14T05:55:47;11.30;99.90
15749;DHT22;7976;52.526;13.326;2023-03-14T05:58:39;11.30;99.90
15749;DHT22;7976;52.526;13.326;2023-03-14T06:01:19;11.30;99.90
15749;DHT22;7976;52.526;13.326;2023-03-14T06:04:02;11.30;99.90
15749;DHT22;7976;52.526;13.326;2023-03-14T06:06:29;11.30;99.90
15749;DHT22;7976;52.526;13.326;2023-03-14T06:08:58;11.30;99.90
15749;DHT22;7976;52.526;13.326;2023-03-14T06:11:25;11.30;99.90
15749;DHT22;7976;52.526;13.326;2023-03-14T06:13:52;11.30;99.90
15749;DHT22;7976;52.526;13.326;2023-03-14T06:16:20;11.40;99.90
15749;DHT22;7976;52.526;13.326;2023-03-14T06:18:47;11.40;99.90
15749;DHT22;7976;52.526;13.326;2023-03-14T06:21:15;11.40;99.90
15749;DHT22;7976;52.526;13.326;2023-03-14T06:23:42;11.40;99.90
15749;DHT22;7976;52.526;13.326;2023-03-14T06:26:09;11.50;99.90
15749;DHT22;7976;52.526;13.326;2023-03-14T06:28:37;11.50;99.90
15749;DHT22;7976;52.526;13.326;2023-03-14T06:31:05;11.50;99.90
15749;DHT22;7976;52.526;13.326;2023-03-14T06:33:41;11.50;99.90
15749;DHT22;7976;52.526;13.326;2023-03-14T06:36:08;11.50;99.90
15749;DHT22;7976;52.526;13.326;2023-03-14T06:38:37;11.60;99.90
15749;DHT22;7976;52.526;13.326;2023-03-14T06:41:05;11.60;99.90
15749;DHT22;7976;52.526;13.326;2023-03-14T06:43:38;11.60;99.90
15749;DHT22;7976;52.526;13.326;2023-03-14T06:46:06;11.70;99.90
15749;DHT22;7976;52.526;13.326;2023-03-14T06:48:35;11.70;99.90
15749;DHT22;7976;52.526;13.326;2023-03-14T06:51:03;11.70;99.90
15749;DHT22;7976;52.526;13.326;2023-03-14T06:53:31;11.80;99.90
15749;DHT22;7976;52.526;13.326;2023-03-14T06:55:59;11.80;99.90
15749;DHT22;7976;52.526;13.326;2023-03-14T06:58:28;11.90;99.90
15749;DHT22;7976;52.526;13.326;2023-03-14T07:00:55;11.90;99.90
15749;DHT22;7976;52.526;13.326;2023-03-14T07:03:26;11.90;99.90
15749;DHT22;7976;52.526;13.326;2023-03-14T07:05:54;12.00;99.90
15749;DHT22;7976;52.526;13.326;2023-03-14T07:08:23;12.10;99.90
15749;DHT22;7976;52.526;13.326;2023-03-14T07:10:49;12.10;99.90
15749;DHT22;7976;52.526;13.326;2023-03-14T07:13:17;12.20;99.90
15749;DHT22;7976;52.526;13.326;2023-03-14T07:15:59;12.20;99.90
15749;DHT22;7976;52.526;13.326;2023-03-14T07:18:26;12.20;99.90
15749;DHT22;7976;52.526;13.326;2023-03-14T07:20:54;12.10;99.90
15749;DHT22;7976;52.526;13.326;2023-03-14T07:23:22;12.10;99.90
15749;DHT22;7976;52.526;13.326;2023-03-14T07:25:52;12.00;99.90
15749;DHT22;7976;52.526;13.326;2023-03-14T07:28:20;11.90;99.90
15749;DHT22;7976;52.526;13.326;2023-03-14T07:30:50;11.90;99.90
15749;DHT22;7976;52.526;13.326;2023-03-14T07:33:23;11.90;99.90
15749;DHT22;7976;52.526;13.326;2023-03-14T07:35:50;11.90;99.90
15749;DHT22;7976;52.526;13.326;2023-03-14T07:38:17;11.80;99.90
15749;DHT22;7976;52.526;13.326;2023-03-14T07:41:06;11.90;99.90
15749;DHT22;7976;52.526;13.326;2023-03-14T07:43:36;11.80;99.90
15749;DHT22;7976;52.526;13.326;2023-03-14T07:46:03;11.80;99.90
15749;DHT22;7976;52.526;13.326;2023-03-14T07:48:30;11.80;99.90
15749;DHT22;7976;52.526;13.326;2023-03-14T07:50:57;11.80;99.90
15749;DHT22;7976;52.526;13.326;2023-03-14T07:53:25;11.80;99.90
15749;DHT22;7976;52.526;13.326;2023-03-14T07:55:52;11.80;99.90
15749;DHT22;7976;52.526;13.326;2023-03-14T07:58:21;11.80;99.90
15749;DHT22;7976;52.526;13.326;2023-03-14T08:00:49;11.90;99.90
15749;DHT22;7976;52.526;13.326;2023-03-14T08:03:16;12.00;99.90
15749;DHT22;7976;52.526;13.326;2023-03-14T08:05:46;12.10;99.90
15749;DHT22;7976;52.526;13.326;2023-03-14T08:08:14;12.20;99.90
15749;DHT22;7976;52.526;13.326;2023-03-14T08:10:41;12.30;99.90
15749;DHT22;7976;52.526;13.326;2023-03-14T08:13:09;12.40;99.90
15749;DHT22;7976;52.526;13.326;2023-03-14T08:15:38;12.50;99.90
15749;DHT22;7976;52.526;13.326;2023-03-14T08:18:05;12.70;99.90
15749;DHT22;7976;52.526;13.326;2023-03-14T08:20:32;12.80;99.90
15749;DHT22;7976;52.526;13.326;2023-03-14T08:23:00;12.90;99.90
15749;DHT22;7976;52.526;13.326;2023-03-14T08:25:27;13.00;99.90
15749;DHT22;7976;52.526;13.326;2023-03-14T08:27:55;13.10;99.90
15749;DHT22;7976;52.526;13.326;2023-03-14T08:30:22;13.10;99.90
15749;DHT22;7976;52.526;13.326;2023-03-14T08:32:50;13.10;99.90
15749;DHT22;7976;52.526;13.326;2023-03-14T08:35:17;13.10;99.90
15749;DHT22;7976;52.526;13.326;2023-03-14T08:37:45;13.10;99.90
15749;DHT22;7976;52.526;13.326;2023-03-14T08:40:13;13.10;99.90
15749;DHT22;7976;52.526;13.326;2023-03-14T08:42:41;13.10;99.90
15749;DHT22;7976;52.526;13.326;2023-03-14T08:45:10;13.00;99.90
15749;DHT22;7976;52.526;13.326;2023-03-14T08:47:38;13.00;99.90
15749;DHT22;7976;52.526;13.326;2023-03-14T08:50:08;12.90;99.90
15749;DHT22;7976;52.526;13.326;2023-03-14T08:52:36;12.90;99.90
15749;DHT22;7976;52.526;13.326;2023-03-14T08:55:06;12.80;99.90
15749;DHT22;7976;52.526;13.326;2023-03-14T08:57:34;12.80;99.90
15749;DHT22;7976;52.526;13.326;2023-03-14T09:00:03;12.70;99.90
15749;DHT22;7976;52.526;13.326;2023-03-14T09:02:34;12.70;99.90
15749;DHT22;7976;52.526;13.326;2023-03-14T09:05:01;12.70;99.90
15749;DHT22;7976;52.526;13.326;2023-03-14T09:07:29;12.70;99.90
15749;DHT22;7976;52.526;13.326;2023-03-14T09:09:56;12.80;99.90
15749;DHT22;7976;52.526;13.326;2023-03-14T09:12:23;12.90;99.90
15749;DHT22;7976;52.526;13.326;2023-03-14T09:14:50;13.10;99.90
15749;DHT22;7976;52.526;13.326;2023-03-14T09:17:17;13.30;99.90
15749;DHT22;7976;52.526;13.326;2023-03-14T09:19:43;13.40;99.90
15749;DHT22;7976;52.526;13.326;2023-03-14T09:22:10;13.30;99.90
15749;DHT22;7976;52.526;13.326;2023-03-14T09:24:40;13.40;99.90
15749;DHT22;7976;52.526;13.326;2023-03-14T09:27:07;13.50;99.90
15749;DHT22;7976;52.526;13.326;2023-03-14T09:29:34;13.50;99.90
15749;DHT22;7976;52.526;13.326;2023-03-14T09:32:01;13.60;99.90
15749;DHT22;7976;52.526;13.326;2023-03-14T09:34:28;13.70;99.90
15749;DHT22;7976;52.526;13.326;2023-03-14T09:36:55;13.90;99.90
15749;DHT22;7976;52.526;13.326;2023-03-14T09:39:23;14.00;99.90
15749;DHT22;7976;52.526;13.326;2023-03-14T09:41:54;14.00;99.90
15749;DHT22;7976;52.526;13.326;2023-03-14T09:44:27;14.10;99.90
15749;DHT22;7976;52.526;13.326;2023-03-14T09:47:00;14.20;99.90
15749;DHT22;7976;52.526;13.326;2023-03-14T09:49:30;14.30;99.90
15749;DHT22;7976;52.526;13.326;2023-03-14T09:52:01;14.30;99.90
15749;DHT22;7976;52.526;13.326;2023-03-14T09:54:32;14.20;99.90
15749;DHT22;7976;52.526;13.326;2023-03-14T09:57:05;14.10;99.90
15749;DHT22;7976;52.526;13.326;2023-03-14T09:59:38;14.00;99.90
15749;DHT22;7976;52.526;13.326;2023-03-14T10:02:15;13.90;99.90
15749;DHT22;7976;52.526;13.326;2023-03-14T10:04:45;13.80;99.90
15749;DHT22;7976;52.526;13.326;2023-03-14T10:07:15;13.80;99.90
15749;DHT22;7976;52.526;13.326;2023-03-14T10:09:45;13.80;99.90
15749;DHT22;7976;52.526;13.326;2023-03-14T10:12:17;13.80;99.90
15749;DHT22;7976;52.526;13.326;2023-03-14T10:14:47;13.80;99.90
15749;DHT22;7976;52.526;13.326;2023-03-14T10:17:17;13.80;99.90
15749;DHT22;7976;52.526;13.326;2023-03-14T10:19:53;13.80;99.90
15749;DHT22;7976;52.526;13.326;2023-03-14T10:22:23;13.80;99.90
15749;DHT22;7976;52.526;13.326;2023-03-14T10:24:54;13.90;99.90
15749;DHT22;7976;52.526;13.326;2023-03-14T10:27:29;13.90;99.90
15749;DHT22;7976;52.526;13.326;2023-03-14T10:29:58;13.90;99.90
15749;DHT22;7976;52.526;13.326;2023-03-14T10:32:33;13.90;99.90
15749;DHT22;7976;52.526;13.326;2023-03-14T10:35:19;13.90;99.90
15749;DHT22;7976;52.526;13.326;2023-03-14T10:37:50;13.80;99.90
15749;DHT22;7976;52.526;13.326;2023-03-14T10:40:24;13.80;99.90
15749;DHT22;7976;52.526;13.326;2023-03-14T10:42:56;13.70;99.90
15749;DHT22;7976;52.526;13.326;2023-03-14T10:45:32;13.70;99.90
15749;DHT22;7976;52.526;13.326;2023-03-14T10:48:21;13.70;99.90
15749;DHT22;7976;52.526;13.326;2023-03-14T10:50:53;13.60;99.90
15749;DHT22;7976;52.526;13.326;2023-03-14T10:53:22;13.60;99.90
15749;DHT22;7976;52.526;13.326;2023-03-14T10:55:50;13.60;99.90
15749;DHT22;7976;52.526;13.326;2023-03-14T10:58:23;13.60;99.90
15749;DHT22;7976;52.526;13.326;2023-03-14T11:01:02;13.70;99.90
15749;DHT22;7976;52.526;13.326;2023-03-14T11:03:43;13.80;99.90
15749;DHT22;7976;52.526;13.326;2023-03-14T11:06:20;13.80;99.90
15749;DHT22;7976;52.526;13.326;2023-03-14T11:08:57;13.80;99.90
15749;DHT22;7976;52.526;13.326;2023-03-14T11:11:32;13.80;99.90
15749;DHT22;7976;52.526;13.326;2023-03-14T11:14:12;13.90;99.90
15749;DHT22;7976;52.526;13.326;2023-03-14T11:16:52;13.90;99.90
15749;DHT22;7976;52.526;13.326;2023-03-14T11:19:47;13.90;99.90
15749;DHT22;7976;52.526;13.326;2023-03-14T11:22:24;13.90;99.90
15749;DHT22;7976;52.526;13.326;2023-03-14T11:25:21;13.90;99.90
15749;DHT22;7976;52.526;13.326;2023-03-14T11:28:01;13.90;99.90
15749;DHT22;7976;52.526;13.326;2023-03-14T11:30:42;13.90;99.90
15749;DHT22;7976;52.526;13.326;2023-03-14T11:33:16;13.80;99.90
15749;DHT22;7976;52.526;13.326;2023-03-14T11:35:51;13.80;99.90
15749;DHT22;7976;52.526;13.326;2023-03-14T11:38:29;13.80;99.90
15749;DHT22;7976;52.526;13.326;2023-03-14T11:40:59;13.90;99.90
15749;DHT22;7976;52.526;13.326;2023-03-14T11:43:30;14.00;99.90
15749;DHT22;7976;52.526;13.326;2023-03-14T11:46:05;14.00;99.90
15749;DHT22;7976;52.526;13.326;2023-03-14T11:48:41;14.00;99.90
15749;DHT22;7976;52.526;13.326;2023-03-14T11:51:17;14.00;99.90
15749;DHT22;7976;52.526;13.326;2023-03-14T11:53:55;14.00;99.90
15749;DHT22;7976;52.526;13.326;2023-03-14T11:56:31;14.10;99.90
15749;DHT22;7976;52.526;13.326;2023-03-14T11:59:04;14.20;99.90
15749;DHT22;7976;52.526;13.326;2023-03-14T12:01:49;14.30;99.90
15749;DHT22;7976;52.526;13.326;2023-03-14T12:04:35;14.30;99.90
15749;DHT22;7976;52.526;13.326;2023-03-14T12:07:17;14.50;99.90
15749;DHT22;7976;52.526;13.326;2023-03-14T12:09:48;14.50;99.90
15749;DHT22;7976;52.526;13.326;2023-03-14T12:12:19;14.50;99.90
15749;DHT22;7976;52.526;13.326;2023-03-14T12:14:53;14.50;99.90
15749;DHT22;7976;52.526;13.326;2023-03-14T12:17:26;14.40;99.90
15749;DHT22;7976;52.526;13.326;2023-03-14T12:20:03;14.50;99.90
15749;DHT22;7976;52.526;13.326;2023-03-14T12:22:35;14.50;99.90
15749;DHT22;7976;52.526;13.326;2023-03-14T12:25:15;14.40;99.90
15749;DHT22;7976;52.526;13.326;2023-03-14T12:27:47;14.40;99.90
15749;DHT22;7976;52.526;13.326;2023-03-14T12:30:28;14.50;99.90
15749;DHT22;7976;52.526;13.326;2023-03-14T12:33:29;14.50;99.90
15749;DHT22;7976;52.526;13.326;2023-03-14T12:36:11;14.60;99.90
15749;DHT22;7976;52.526;13.326;2023-03-14T12:39:00;14.60;99.90
15749;DHT22;7976;52.526;13.326;2023-03-14T12:41:45;14.60;99.90
15749;DHT22;7976;52.526;13.326;2023-03-14T12:44:51;14.60;99.90
15749;DHT22;7976;52.526;13.326;2023-03-14T12:47:45;14.60;99.90
15749;DHT22;7976;52.526;13.326;2023-03-14T12:50:40;14.60;99.90
15749;DHT22;7976;52.526;13.326;2023-03-14T12:53:47;14.50;99.90
15749;DHT22;7976;52.526;13.326;2023-03-14T12:59:32;14.60;99.90
15749;DHT22;7976;52.526;13.326;2023-03-14T13:02:17;14.50;99.90
15749;DHT22;7976;52.526;13.326;2023-03-14T13:04:54;14.40;99.90
15749;DHT22;7976;52.526;13.326;2023-03-14T13:07:32;14.30;99.90
15749;DHT22;7976;52.526;13.326;2023-03-14T13:10:18;14.10;99.90
15749;DHT22;7976;52.526;13.326;2023-03-14T13:12:52;14.00;99.90
15749;DHT22;7976;52.526;13.326;2023-03-14T13:15:26;13.90;99.90
15749;DHT22;7976;52.526;13.326;2023-03-14T13:18:01;13.70;99.90
15749;DHT22;7976;52.526;13.326;2023-03-14T13:20:32;13.50;99.90
15749;DHT22;7976;52.526;13.326;2023-03-14T13:23:04;13.30;99.90
15749;DHT22;7976;52.526;13.326;2023-03-14T13:25:33;13.20;99.90
15749;DHT22;7976;52.526;13.326;2023-03-14T13:28:03;13.10;99.90
15749;DHT22;7976;52.526;13.326;2023-03-14T13:30:39;13.00;99.90
15749;DHT22;7976;52.526;13.326;2023-03-14T13:33:06;13.10;99.90
15749;DHT22;7976;52.526;13.326;2023-03-14T13:35:42;13.10;99.90
15749;DHT22;7976;52.526;13.326;2023-03-14T13:38:18;13.20;99.90
15749;DHT22;7976;52.526;13.326;2023-03-14T13:40:47;13.20;99.90
15749;DHT22;7976;52.526;13.326;2023-03-14T13:43:18;13.30;99.90
15749;DHT22;7976;52.526;13.326;2023-03-14T13:45:52;13.40;99.90
15749;DHT22;7976;52.526;13.326;2023-03-14T13:48:25;13.50;99.90
15749;DHT22;7976;52.526;13.326;2023-03-14T13:50:56;13.50;99.90
15749;DHT22;7976;52.526;13.326;2023-03-14T13:53:28;13.60;99.90
15749;DHT22;7976;52.526;13.326;2023-03-14T13:55:55;13.80;99.90
15749;DHT22;7976;52.526;13.326;2023-03-14T13:58:27;13.90;99.90
15749;DHT22;7976;52.526;13.326;2023-03-14T14:01:09;14.10;99.90
15749;DHT22;7976;52.526;13.326;2023-03-14T14:03:41;14.20;99.90
15749;DHT22;7976;52.526;13.326;2023-03-14T14:06:19;14.20;99.90
15749;DHT22;7976;52.526;13.326;2023-03-14T14:08:53;14.10;99.90
15749;DHT22;7976;52.526;13.326;2023-03-14T14:11:30;14.00;99.90
15749;DHT22;7976;52.526;13.326;2023-03-14T14:14:03;14.00;99.90
15749;DHT22;7976;52.526;13.326;2023-03-14T14:16:32;14.00;99.90
15749;DHT22;7976;52.526;13.326;2023-03-14T14:18:59;14.00;99.90
15749;DHT22;7976;52.526;13.326;2023-03-14T14:21:27;13.90;99.90
15749;DHT22;7976;52.526;13.326;2023-03-14T14:23:56;13.80;99.90
15749;DHT22;7976;52.526;13.326;2023-03-14T14:26:26;13.70;99.90
15749;DHT22;7976;52.526;13.326;2023-03-14T14:29:02;13.70;99.90
15749;DHT22;7976;52.526;13.326;2023-03-14T14:31:30;13.60;99.90
15749;DHT22;7976;52.526;13.326;2023-03-14T14:33:59;13.60;99.90
15749;DHT22;7976;52.526;13.326;2023-03-14T14:36:30;13.60;99.90
15749;DHT22;7976;52.526;13.326;2023-03-14T14:39:09;13.60;99.90
15749;DHT22;7976;52.526;13.326;2023-03-14T14:41:43;13.70;99.90
15749;DHT22;7976;52.526;13.326;2023-03-14T14:44:12;13.70;99.90
15749;DHT22;7976;52.526;13.326;2023-03-14T14:46:43;13.80;99.90
15749;DHT22;7976;52.526;13.326;2023-03-14T14:49:12;13.80;99.90
15749;DHT22;7976;52.526;13.326;2023-03-14T14:51:43;13.90;99.90
15749;DHT22;7976;52.526;13.326;2023-03-14T14:54:16;13.80;99.90
15749;DHT22;7976;52.526;13.326;2023-03-14T14:56:50;13.80;99.90
15749;DHT22;7976;52.526;13.326;2023-03-14T14:59:21;13.80;99.90
15749;DHT22;7976;52.526;13.326;2023-03-14T15:01:55;13.80;99.90
15749;DHT22;7976;52.526;13.326;2023-03-14T15:04:23;13.70;99.90
15749;DHT22;7976;52.526;13.326;2023-03-14T15:06:52;13.70;99.90
15749;DHT22;7976;52.526;13.326;2023-03-14T15:09:20;13.60;99.90
15749;DHT22;7976;52.526;13.326;2023-03-14T15:11:48;13.60;99.90
15749;DHT22;7976;52.526;13.326;2023-03-14T15:14:15;13.50;99.90
15749;DHT22;7976;52.526;13.326;2023-03-14T15:16:42;13.50;99.90
15749;DHT22;7976;52.526;13.326;2023-03-14T15:19:19;12.60;99.90
15749;DHT22;7976;52.526;13.326;2023-03-14T15:21:47;11.50;99.90
15749;DHT22;7976;52.526;13.326;2023-03-14T15:24:14;10.40;99.90
15749;DHT22;7976;52.526;13.326;2023-03-14T15:26:42;9.70;99.90
15749;DHT22;7976;52.526;13.326;2023-03-14T15:29:09;9.10;99.90
15749;DHT22;7976;52.526;13.326;2023-03-14T15:31:37;8.60;99.90
15749;DHT22;7976;52.526;13.326;2023-03-14T15:34:04;8.30;99.90
15749;DHT22;7976;52.526;13.326;2023-03-14T15:36:33;7.90;99.90
15749;DHT22;7976;52.526;13.326;2023-03-14T15:39:01;7.60;99.90
15749;DHT22;7976;52.526;13.326;2023-03-14T15:41:28;7.50;99.90
15749;DHT22;7976;52.526;13.326;2023-03-14T15:43:57;7.40;99.90
15749;DHT22;7976;52.526;13.326;2023-03-14T15:46:24;7.30;99.90
15749;DHT22;7976;52.526;13.326;2023-03-14T15:48:51;7.20;99.90
15749;DHT22;7976;52.526;13.326;2023-03-14T15:51:18;6.90;99.90
15749;DHT22;7976;52.526;13.326;2023-03-14T15:53:46;6.70;99.90
15749;DHT22;7976;52.526;13.326;2023-03-14T15:56:15;6.50;99.90
15749;DHT22;7976;52.526;13.326;2023-03-14T15:58:43;6.20;99.90
15749;DHT22;7976;52.526;13.326;2023-03-14T16:01:13;6.10;99.90
15749;DHT22;7976;52.526;13.326;2023-03-14T16:03:42;5.90;99.90
15749;DHT22;7976;52.526;13.326;2023-03-14T16:06:10;5.60;99.90
15749;DHT22;7976;52.526;13.326;2023-03-14T16:08:37;5.40;99.90